createdAt,value
2024-02-27T00:00:14.985Z,89.94
2024-02-27T00:02:41.821Z,90.87
2024-02-27T00:05:08.679Z,89.04
2024-02-27T00:07:35.913Z,89.61
2024-02-27T00:10:02.658Z,90.08
2024-02-27T00:12:29.799Z,89.90
2024-02-27T00:14:56.584Z,89.15
2024-02-27T00:17:23.278Z,89.82
2024-02-27T00:19:49.976Z,89.37
2024-02-27T00:22:16.866Z,89.04
2024-02-27T00:24:43.739Z,88.21
2024-02-27T00:27:10.390Z,87.55
2024-02-27T00:29:37.063Z,88.44
2024-02-27T00:32:03.860Z,86.28
2024-02-27T00:34:30.741Z,86.66
2024-02-27T00:36:57.436Z,85.36
2024-02-27T00:39:24.719Z,85.19
2024-02-27T00:41:51.463Z,85.36
2024-02-27T00:44:18.134Z,85.83
2024-02-27T00:46:45.257Z,85.56
2024-02-27T00:49:12.532Z,84.85
2024-02-27T00:51:39.248Z,84.95
2024-02-27T00:54:06.071Z,84.85
2024-02-27T00:56:32.833Z,85.14
2024-02-27T00:58:59.436Z,85.54
2024-02-27T01:01:26.105Z,84.91
2024-02-27T01:03:52.741Z,84.62
2024-02-27T01:06:19.476Z,83.34
2024-02-27T01:08:46.197Z,83.73
2024-02-27T01:11:13.222Z,84.09
2024-02-27T01:13:39.965Z,84.35
2024-02-27T01:16:06.646Z,85.05
2024-02-27T01:18:33.524Z,85.39
2024-02-27T01:21:02.309Z,84.55
2024-02-27T01:23:29.335Z,83.50
2024-02-27T01:25:55.976Z,83.79
2024-02-27T01:28:22.655Z,83.29
2024-02-27T01:30:50.988Z,83.88
2024-02-27T01:33:17.724Z,83.84
2024-02-27T01:35:44.481Z,83.99
2024-02-27T01:38:11.196Z,83.33
2024-02-27T01:40:37.765Z,82.46
2024-02-27T01:43:04.468Z,83.26
2024-02-27T01:45:31.703Z,82.40
2024-02-27T01:47:58.569Z,83.50
2024-02-27T01:50:25.781Z,84.26
2024-02-27T01:52:52.868Z,83.89
2024-02-27T01:55:20.453Z,83.23
2024-02-27T01:57:47.649Z,83.42
2024-02-27T02:00:15.930Z,83.45
2024-02-27T02:02:46.252Z,82.63
2024-02-27T02:05:13.377Z,82.46
2024-02-27T02:07:41.402Z,82.57
2024-02-27T02:10:11.126Z,82.62
2024-02-27T02:12:37.989Z,83.24
2024-02-27T02:15:05.387Z,81.65
2024-02-27T02:17:33.326Z,82.15
2024-02-27T02:20:00.031Z,83.10
2024-02-27T02:22:26.635Z,84.39
2024-02-27T02:24:53.321Z,85.78
2024-02-27T02:27:20.348Z,85.29
2024-02-27T02:29:46.991Z,83.68
2024-02-27T02:32:13.516Z,82.42
2024-02-27T02:34:40.302Z,82.13
2024-02-27T02:37:06.917Z,82.75
2024-02-27T02:39:33.528Z,83.84
2024-02-27T02:42:00.168Z,83.77
2024-02-27T02:44:26.772Z,83.79
2024-02-27T02:46:53.447Z,84.39
2024-02-27T02:49:20.165Z,84.41
2024-02-27T02:51:46.835Z,84.04
2024-02-27T02:54:13.546Z,83.86
2024-02-27T02:56:40.192Z,83.78
2024-02-27T02:59:06.834Z,84.31
2024-02-27T03:01:33.441Z,84.12
2024-02-27T03:04:00.275Z,83.51
2024-02-27T03:06:26.935Z,83.57
2024-02-27T03:08:53.723Z,83.90
2024-02-27T03:11:20.404Z,84.47
2024-02-27T03:13:47.121Z,84.93
2024-02-27T03:16:15.082Z,84.64
2024-02-27T03:18:41.681Z,83.85
2024-02-27T03:21:09.064Z,83.51
2024-02-27T03:23:35.765Z,83.30
2024-02-27T03:26:02.335Z,84.65
2024-02-27T03:28:28.917Z,84.93
2024-02-27T03:30:55.463Z,85.01
2024-02-27T03:33:22.254Z,84.48
2024-02-27T03:35:48.902Z,85.48
2024-02-27T03:38:15.566Z,85.64
2024-02-27T03:40:42.170Z,85.61
2024-02-27T03:43:08.913Z,86.90
2024-02-27T03:45:35.534Z,87.58
2024-02-27T03:48:02.282Z,88.74
2024-02-27T03:50:28.881Z,87.28
2024-02-27T03:52:55.511Z,88.09
2024-02-27T03:55:22.083Z,88.73
2024-02-27T03:57:48.692Z,87.91
2024-02-27T04:00:15.540Z,88.74
2024-02-27T04:02:43.710Z,88.63
2024-02-27T04:05:11.135Z,88.19
2024-02-27T04:07:38.040Z,87.23
2024-02-27T04:10:05.619Z,88.37
2024-02-27T04:12:32.439Z,87.75
2024-02-27T04:14:59.119Z,87.53
2024-02-27T04:17:25.921Z,87.98
2024-02-27T04:19:52.796Z,87.27
2024-02-27T04:22:19.495Z,86.33
2024-02-27T04:24:46.047Z,86.90
2024-02-27T04:27:12.792Z,86.86
2024-02-27T04:29:42.380Z,86.32
2024-02-27T04:32:09.082Z,86.28
2024-02-27T04:34:35.825Z,87.17
2024-02-27T04:37:02.889Z,86.73
2024-02-27T04:39:29.436Z,86.37
2024-02-27T04:41:56.157Z,86.81
2024-02-27T04:44:22.663Z,86.65
2024-02-27T04:46:49.282Z,86.33
2024-02-27T04:49:16.014Z,86.18
2024-02-27T04:51:43.875Z,85.84
2024-02-27T04:54:10.593Z,87.01
2024-02-27T04:56:43.520Z,86.41
2024-02-27T04:59:10.314Z,85.88
2024-02-27T05:01:36.867Z,85.43
2024-02-27T05:04:03.607Z,86.50
2024-02-27T05:06:30.247Z,87.45
2024-02-27T05:08:57.005Z,86.55
2024-02-27T05:11:23.609Z,86.20
2024-02-27T05:13:50.279Z,85.64
2024-02-27T05:16:16.784Z,85.90
2024-02-27T05:18:43.705Z,86.50
2024-02-27T05:21:10.357Z,85.35
2024-02-27T05:23:37.789Z,85.97
2024-02-27T05:26:05.156Z,86.83
2024-02-27T05:28:31.801Z,87.24
2024-02-27T05:30:58.472Z,86.80
2024-02-27T05:33:25.382Z,86.30
2024-02-27T05:35:52.573Z,85.66
2024-02-27T05:38:19.369Z,86.33
2024-02-27T05:40:45.873Z,86.51
2024-02-27T05:43:12.509Z,88.82
2024-02-27T05:45:39.134Z,90.42
2024-02-27T05:48:06.098Z,88.09
2024-02-27T05:50:32.720Z,88.66
2024-02-27T05:52:59.327Z,88.76
2024-02-27T05:55:25.846Z,88.11
2024-02-27T05:57:52.510Z,90.40
2024-02-27T06:00:19.251Z,90.34
2024-02-27T06:02:45.944Z,91.67
2024-02-27T06:05:12.590Z,91.85
2024-02-27T06:07:39.380Z,92.67
2024-02-27T06:10:06.483Z,92.59
2024-02-27T06:12:33.251Z,91.82
2024-02-27T06:15:02.694Z,93.53
2024-02-27T06:17:29.416Z,93.68
2024-02-27T06:20:01.083Z,92.80
2024-02-27T06:22:30.601Z,92.58
2024-02-27T06:24:57.317Z,93.81
2024-02-27T06:27:23.975Z,93.09
2024-02-27T06:29:50.557Z,92.36
2024-02-27T06:32:17.222Z,92.93
2024-02-27T06:34:43.980Z,93.15
2024-02-27T06:37:10.828Z,92.64
2024-02-27T06:39:37.625Z,93.29
2024-02-27T06:42:04.550Z,93.06
2024-02-27T06:44:31.295Z,92.16
2024-02-27T06:46:57.931Z,91.66
2024-02-27T06:49:24.768Z,92.51
2024-02-27T06:51:51.693Z,92.94
2024-02-27T06:54:18.637Z,93.86
2024-02-27T06:56:45.346Z,94.15
2024-02-27T06:59:12.015Z,94.12
2024-02-27T07:01:38.596Z,93.26
2024-02-27T07:04:05.360Z,91.55
2024-02-27T07:06:32.208Z,90.92
2024-02-27T07:08:59.872Z,90.94
2024-02-27T07:11:28.307Z,92.88
2024-02-27T07:13:55.383Z,91.98
2024-02-27T07:16:22.241Z,93.87
2024-02-27T07:18:49.944Z,93.81
2024-02-27T07:21:18.322Z,93.31
2024-02-27T07:23:47.210Z,92.10
2024-02-27T07:26:13.883Z,92.50
2024-02-27T07:28:40.537Z,91.74
2024-02-27T07:31:07.127Z,92.05
2024-02-27T07:33:33.758Z,92.30
2024-02-27T07:36:00.438Z,91.48
2024-02-27T07:38:27.084Z,90.78
2024-02-27T07:40:53.671Z,91.68
2024-02-27T07:43:20.392Z,91.50
2024-02-27T07:45:52.522Z,92.36
2024-02-27T07:48:20.967Z,92.14
2024-02-27T07:50:47.706Z,91.99
2024-02-27T07:53:14.408Z,92.09
2024-02-27T07:55:42.493Z,92.69
2024-02-27T07:58:10.945Z,91.47
2024-02-27T08:00:37.928Z,89.91
2024-02-27T08:03:06.231Z,89.05
2024-02-27T08:05:33.102Z,89.69
2024-02-27T08:07:59.849Z,90.56
2024-02-27T08:10:26.361Z,91.83
2024-02-27T08:12:54.082Z,92.11
2024-02-27T08:15:20.734Z,91.60
2024-02-27T08:17:47.489Z,91.87
2024-02-27T08:20:14.368Z,90.96
2024-02-27T08:22:40.988Z,91.44
2024-02-27T08:25:07.804Z,90.24
2024-02-27T08:27:36.105Z,89.72
2024-02-27T08:30:04.882Z,91.03
2024-02-27T08:32:32.826Z,90.45
2024-02-27T08:34:59.670Z,89.91
2024-02-27T08:37:27.156Z,90.78
2024-02-27T08:39:53.775Z,89.59
2024-02-27T08:42:20.379Z,90.92
2024-02-27T08:44:46.988Z,91.33
2024-02-27T08:47:14.111Z,91.89
2024-02-27T08:49:44.748Z,90.77
2024-02-27T08:52:11.696Z,91.55
2024-02-27T08:54:38.472Z,92.96
2024-02-27T08:57:05.675Z,90.96
2024-02-27T08:59:32.884Z,90.77
2024-02-27T09:01:59.590Z,90.11
2024-02-27T09:04:26.349Z,89.81
2024-02-27T09:06:53.178Z,90.64
2024-02-27T09:09:19.907Z,90.67
2024-02-27T09:11:49.053Z,89.23
2024-02-27T09:14:15.998Z,89.70
2024-02-27T09:16:42.597Z,88.98
2024-02-27T09:19:09.334Z,89.07
2024-02-27T09:21:36.071Z,91.93
2024-02-27T09:24:03.005Z,91.29
2024-02-27T09:26:29.550Z,91.19
2024-02-27T09:28:56.690Z,91.81
2024-02-27T09:31:30.861Z,90.24
2024-02-27T09:33:58.912Z,89.54
2024-02-27T09:36:26.848Z,90.15
2024-02-27T09:38:53.686Z,90.57
2024-02-27T09:41:24.697Z,89.20
2024-02-27T09:43:54.525Z,88.68
2024-02-27T09:46:24.827Z,89.05
2024-02-27T09:48:52.760Z,89.32
2024-02-27T09:51:20.216Z,88.35
2024-02-27T09:53:47.758Z,86.96
2024-02-27T09:56:16.512Z,86.58
2024-02-27T09:58:46.699Z,85.91
2024-02-27T10:01:14.560Z,85.93
2024-02-27T10:03:45.352Z,85.21
2024-02-27T10:06:15.836Z,85.08
2024-02-27T10:08:45.077Z,85.16
2024-02-27T10:11:12.825Z,86.35
2024-02-27T10:13:39.634Z,84.70
2024-02-27T10:16:06.311Z,84.73
2024-02-27T10:18:33.373Z,84.64
2024-02-27T10:21:00.085Z,86.10
2024-02-27T10:23:26.753Z,86.35
2024-02-27T10:25:53.512Z,86.83
2024-02-27T10:28:20.220Z,84.71
2024-02-27T10:30:46.820Z,85.82
2024-02-27T10:33:16.302Z,84.25
2024-02-27T10:35:43.938Z,85.65
2024-02-27T10:38:19.518Z,84.26
2024-02-27T10:40:47.468Z,85.69
2024-02-27T10:43:14.571Z,85.33
2024-02-27T10:45:44.096Z,85.21
2024-02-27T10:48:10.802Z,85.05
2024-02-27T10:50:38.040Z,85.17
2024-02-27T10:53:07.907Z,85.13
2024-02-27T10:55:36.980Z,86.61
2024-02-27T10:58:04.582Z,85.58
2024-02-27T11:00:32.376Z,84.18
2024-02-27T11:02:59.084Z,83.19
2024-02-27T11:05:29.152Z,83.74
2024-02-27T11:07:56.792Z,82.45
2024-02-27T11:10:26.569Z,83.40
2024-02-27T11:12:54.739Z,81.19
2024-02-27T11:15:22.327Z,82.77
2024-02-27T11:17:54.940Z,82.35
2024-02-27T11:20:22.891Z,81.84
2024-02-27T11:22:50.185Z,82.08
2024-02-27T11:25:17.087Z,82.34
2024-02-27T11:27:44.237Z,81.98
2024-02-27T11:30:11.597Z,81.05
2024-02-27T11:32:39.447Z,81.33
2024-02-27T11:35:07.842Z,83.26
2024-02-27T11:37:35.313Z,81.63
2024-02-27T11:40:05.731Z,81.77
2024-02-27T11:42:32.747Z,82.11
2024-02-27T11:45:05.607Z,81.03
2024-02-27T11:47:49.052Z,80.93
2024-02-27T11:50:34.311Z,81.02
2024-02-27T11:53:01.157Z,80.92
2024-02-27T11:55:27.712Z,81.33
2024-02-27T11:57:54.631Z,81.34
2024-02-27T12:00:21.591Z,81.18
2024-02-27T12:02:48.466Z,82.34
2024-02-27T12:05:19.601Z,81.48
2024-02-27T12:07:46.631Z,82.93
2024-02-27T12:10:14.136Z,82.10
2024-02-27T12:12:41.554Z,81.78
2024-02-27T12:15:09.507Z,81.43
2024-02-27T12:17:39.438Z,82.46
2024-02-27T12:20:07.097Z,81.85
2024-02-27T12:22:37.482Z,81.77
2024-02-27T12:25:04.876Z,82.17
2024-02-27T12:27:36.679Z,83.31
2024-02-27T12:30:11.372Z,82.73
2024-02-27T12:32:41.605Z,83.43
2024-02-27T12:35:09.205Z,82.17
2024-02-27T12:37:42.832Z,82.19
2024-02-27T12:40:14.064Z,83.11
2024-02-27T12:42:44.919Z,82.00
2024-02-27T12:45:12.545Z,81.08
2024-02-27T12:47:39.785Z,81.05
2024-02-27T12:50:07.046Z,80.22
2024-02-27T12:52:33.732Z,80.82
2024-02-27T12:55:00.548Z,81.25
2024-02-27T12:57:27.893Z,79.61
2024-02-27T12:59:54.979Z,80.00
2024-02-27T13:02:21.855Z,80.00
2024-02-27T13:04:48.637Z,80.07
2024-02-27T13:07:15.486Z,79.75
2024-02-27T13:09:42.765Z,79.60
2024-02-27T13:12:10.063Z,80.22
2024-02-27T13:14:36.934Z,80.12
2024-02-27T13:17:03.516Z,80.85
2024-02-27T13:19:30.469Z,81.32
2024-02-27T13:21:58.242Z,79.54
2024-02-27T13:24:25.767Z,80.14
2024-02-27T13:26:53.023Z,78.03
2024-02-27T13:29:19.731Z,79.03
2024-02-27T13:31:47.453Z,78.64
2024-02-27T13:34:17.571Z,79.81
2024-02-27T13:36:44.978Z,79.02
2024-02-27T13:39:12.730Z,79.23
2024-02-27T13:41:39.468Z,79.02
2024-02-27T13:44:06.314Z,78.51
2024-02-27T13:46:33.053Z,80.64
2024-02-27T13:48:59.812Z,80.45
2024-02-27T13:51:26.574Z,81.33
2024-02-27T13:53:53.510Z,81.92
2024-02-27T13:56:20.343Z,81.62
2024-02-27T13:58:46.969Z,81.09
2024-02-27T14:01:14.094Z,80.95
2024-02-27T14:03:40.902Z,81.39
2024-02-27T14:06:08.039Z,80.07
2024-02-27T14:08:35.604Z,80.07
2024-02-27T14:11:02.626Z,79.99
2024-02-27T14:13:29.296Z,79.07
2024-02-27T14:15:55.993Z,78.18
2024-02-27T14:18:22.895Z,79.00
2024-02-27T14:20:49.614Z,78.26
2024-02-27T14:23:16.187Z,78.07
2024-02-27T14:25:42.847Z,78.94
2024-02-27T14:28:09.532Z,79.99
2024-02-27T14:30:36.493Z,80.24
2024-02-27T14:33:03.239Z,79.70
2024-02-27T14:35:31.430Z,79.83
2024-02-27T14:37:58.119Z,79.69
2024-02-27T14:40:24.946Z,80.25
2024-02-27T14:42:55.048Z,79.87
2024-02-27T14:45:21.968Z,82.33
2024-02-27T14:47:48.715Z,81.11
2024-02-27T14:50:15.697Z,81.17
2024-02-27T14:52:42.356Z,80.81
2024-02-27T14:55:09.069Z,81.27
2024-02-27T14:57:37.393Z,81.04
2024-02-27T15:00:07.056Z,80.15
2024-02-27T15:02:34.157Z,81.49
2024-02-27T15:05:00.876Z,80.52
2024-02-27T15:07:27.968Z,80.66
2024-02-27T15:09:54.697Z,82.94
2024-02-27T15:12:23.820Z,81.93
2024-02-27T15:14:51.968Z,81.12
2024-02-27T15:17:18.586Z,80.95
2024-02-27T15:19:45.435Z,79.75
2024-02-27T15:22:12.243Z,79.01
2024-02-27T15:24:38.973Z,78.23
2024-02-27T15:27:05.940Z,79.51
2024-02-27T15:29:32.637Z,79.88
2024-02-27T15:31:59.245Z,79.98
2024-02-27T15:34:27.598Z,80.88
2024-02-27T15:36:54.338Z,82.08
2024-02-27T15:39:21.028Z,81.87
2024-02-27T15:41:48.296Z,80.74
2024-02-27T15:44:21.295Z,81.22
2024-02-27T15:46:48.743Z,80.28
2024-02-27T15:49:15.570Z,80.08
2024-02-27T15:51:48.844Z,81.41
2024-02-27T15:54:16.487Z,80.02
2024-02-27T15:56:43.130Z,79.32
2024-02-27T15:59:09.766Z,79.81
2024-02-27T16:01:36.387Z,78.84
2024-02-27T16:04:12.433Z,79.07
2024-02-27T16:07:05.973Z,78.79
2024-02-27T16:09:32.672Z,78.71
2024-02-27T16:12:07.888Z,77.28
2024-02-27T16:14:42.079Z,79.49
2024-02-27T16:17:08.771Z,77.83
2024-02-27T16:19:35.888Z,78.31
2024-02-27T16:22:08.772Z,77.14
2024-02-27T16:24:35.459Z,76.76
2024-02-27T16:27:02.152Z,78.45
2024-02-27T16:29:28.843Z,78.54
2024-02-27T16:31:55.448Z,78.13
2024-02-27T16:34:22.700Z,78.65
2024-02-27T16:36:49.379Z,77.63
2024-02-27T16:39:17.242Z,77.88
2024-02-27T16:41:44.405Z,78.44
2024-02-27T16:44:11.100Z,77.91
2024-02-27T16:46:37.748Z,78.28
2024-02-27T16:49:04.527Z,78.72
2024-02-27T16:51:31.227Z,78.99
2024-02-27T16:53:57.936Z,79.46
2024-02-27T16:56:24.500Z,79.50
2024-02-27T16:58:52.552Z,78.91
2024-02-27T17:01:19.367Z,79.28
2024-02-27T17:03:46.473Z,79.60
2024-02-27T17:06:16.519Z,79.34
2024-02-27T17:08:43.326Z,79.85
2024-02-27T17:11:10.735Z,79.44
2024-02-27T17:13:37.586Z,79.02
2024-02-27T17:16:04.489Z,79.85
2024-02-27T17:18:31.390Z,78.90
2024-02-27T17:20:58.124Z,79.34
2024-02-27T17:23:25.915Z,79.90
2024-02-27T17:25:58.086Z,79.39
2024-02-27T17:28:26.809Z,78.64
2024-02-27T17:30:53.488Z,79.01
2024-02-27T17:33:20.399Z,78.33
2024-02-27T17:35:47.039Z,78.25
2024-02-27T17:38:13.675Z,80.49
2024-02-27T17:40:40.264Z,79.35
2024-02-27T17:43:06.891Z,78.96
2024-02-27T17:45:33.672Z,79.94
2024-02-27T17:48:00.769Z,81.11
2024-02-27T17:50:27.486Z,81.26
2024-02-27T17:52:54.703Z,80.15
2024-02-27T17:55:21.689Z,80.18
2024-02-27T17:57:48.452Z,78.72
2024-02-27T18:00:15.155Z,77.34
2024-02-27T18:02:41.853Z,79.35
2024-02-27T18:05:08.677Z,78.74
2024-02-27T18:07:35.418Z,79.11
2024-02-27T18:10:05.251Z,78.71
2024-02-27T18:12:31.988Z,76.99
2024-02-27T18:14:59.195Z,77.77
2024-02-27T18:17:26.020Z,78.18
2024-02-27T18:19:52.764Z,78.39
2024-02-27T18:22:19.880Z,79.39
2024-02-27T18:24:46.496Z,79.44
2024-02-27T18:27:13.323Z,80.44
2024-02-27T18:29:40.128Z,80.73
2024-02-27T18:32:06.973Z,79.25
2024-02-27T18:34:33.669Z,79.17
2024-02-27T18:37:00.394Z,79.05
2024-02-27T18:39:27.076Z,79.88
2024-02-27T18:41:54.069Z,78.79
2024-02-27T18:44:20.694Z,78.91
2024-02-27T18:46:47.265Z,80.17
2024-02-27T18:49:14.060Z,79.34
2024-02-27T18:51:41.831Z,79.29
2024-02-27T18:54:09.297Z,78.89
2024-02-27T18:56:36.888Z,79.11
2024-02-27T18:59:03.744Z,80.94
2024-02-27T19:01:30.374Z,80.54
2024-02-27T19:03:57.000Z,78.80
2024-02-27T19:06:23.730Z,78.39
2024-02-27T19:08:50.460Z,77.85
2024-02-27T19:11:17.740Z,78.92
2024-02-27T19:13:45.207Z,79.21
2024-02-27T19:16:11.895Z,79.70
2024-02-27T19:18:39.164Z,79.93
2024-02-27T19:21:05.996Z,80.67
2024-02-27T19:23:32.607Z,80.14
2024-02-27T19:25:59.291Z,78.71
2024-02-27T19:28:25.837Z,78.43
2024-02-27T19:30:52.555Z,78.09
2024-02-27T19:33:19.992Z,78.12
2024-02-27T19:35:47.202Z,75.98
2024-02-27T19:38:19.201Z,77.56
2024-02-27T19:40:47.101Z,79.25
2024-02-27T19:43:13.795Z,80.57
2024-02-27T19:45:44.659Z,80.27
2024-02-27T19:48:11.536Z,80.51
2024-02-27T19:50:38.248Z,78.89
2024-02-27T19:53:08.367Z,77.91
2024-02-27T19:55:35.089Z,78.11
2024-02-27T19:58:01.724Z,77.76
2024-02-27T20:00:29.277Z,78.31
2024-02-27T20:02:55.997Z,77.94
2024-02-27T20:05:22.632Z,78.67
2024-02-27T20:07:49.489Z,76.57
2024-02-27T20:10:16.338Z,78.54
2024-02-27T20:12:43.269Z,78.29
2024-02-27T20:15:10.662Z,76.43
2024-02-27T20:17:39.905Z,78.18
2024-02-27T20:20:07.154Z,76.93
2024-02-27T20:22:34.134Z,77.01
2024-02-27T20:25:01.005Z,76.57
2024-02-27T20:27:28.402Z,76.92
2024-02-27T20:30:00.231Z,77.29
2024-02-27T20:32:27.990Z,79.48
2024-02-27T20:34:54.823Z,78.39
2024-02-27T20:37:21.515Z,77.34
2024-02-27T20:39:48.251Z,77.55
2024-02-27T20:42:17.927Z,77.68
2024-02-27T20:44:45.159Z,78.14
2024-02-27T20:47:11.748Z,77.60
2024-02-27T20:49:38.378Z,78.10
2024-02-27T20:52:05.108Z,78.40
2024-02-27T20:54:32.253Z,76.86
2024-02-27T20:56:59.109Z,77.55
2024-02-27T20:59:25.779Z,78.90
2024-02-27T21:01:52.486Z,78.47
2024-02-27T21:04:19.216Z,78.14
2024-02-27T21:06:46.012Z,78.49
2024-02-27T21:09:12.957Z,78.00
2024-02-27T21:11:39.701Z,78.47
2024-02-27T21:14:06.443Z,79.52
2024-02-27T21:16:35.531Z,80.11
2024-02-27T21:19:02.217Z,79.03
2024-02-27T21:21:28.995Z,80.49
2024-02-27T21:23:56.946Z,79.41
2024-02-27T21:26:24.840Z,79.94
2024-02-27T21:28:53.052Z,79.86
2024-02-27T21:31:19.623Z,79.78
2024-02-27T21:33:46.455Z,77.94
2024-02-27T21:36:15.474Z,79.33
2024-02-27T21:38:42.206Z,78.33
2024-02-27T21:41:09.886Z,79.01
2024-02-27T21:43:36.545Z,78.74
2024-02-27T21:46:05.884Z,78.59
2024-02-27T21:48:32.644Z,79.81
2024-02-27T21:50:59.270Z,78.72
2024-02-27T21:53:26.108Z,78.11
2024-02-27T21:55:52.739Z,76.44
2024-02-27T22:01:02.546Z,77.11
2024-02-27T22:03:29.316Z,76.72
2024-02-27T22:05:55.914Z,76.15
2024-02-27T22:08:23.045Z,77.21
2024-02-27T22:10:49.875Z,77.05
2024-02-27T22:13:19.335Z,77.72
2024-02-27T22:15:46.000Z,76.84
2024-02-27T22:18:12.832Z,78.11
2024-02-27T22:20:39.608Z,77.37
2024-02-27T22:23:08.591Z,78.11
2024-02-27T22:25:35.349Z,79.16
2024-02-27T22:28:02.071Z,78.98
2024-02-27T22:30:31.195Z,77.82
2024-02-27T22:33:00.296Z,77.98
2024-02-27T22:35:26.948Z,77.32
2024-02-27T22:37:57.396Z,76.78
2024-02-27T22:40:24.030Z,76.66
2024-02-27T22:42:50.665Z,76.96
2024-02-27T22:45:17.605Z,77.58
2024-02-27T22:47:44.408Z,75.82
2024-02-27T22:50:11.146Z,76.37
2024-02-27T22:52:40.184Z,76.63
2024-02-27T22:55:07.006Z,75.95
2024-02-27T22:57:33.613Z,75.03
2024-02-27T23:00:00.417Z,74.97
2024-02-27T23:02:27.109Z,75.65
2024-02-27T23:04:53.919Z,77.29
2024-02-27T23:07:22.211Z,75.19
2024-02-27T23:09:48.961Z,77.08
2024-02-27T23:12:18.211Z,76.73
2024-02-27T23:14:48.024Z,77.34
2024-02-27T23:17:14.785Z,76.65
2024-02-27T23:19:44.115Z,77.12
2024-02-27T23:22:10.892Z,77.36
2024-02-27T23:24:37.565Z,77.39
2024-02-27T23:27:04.393Z,77.51
2024-02-27T23:29:31.064Z,78.00
2024-02-27T23:32:00.757Z,76.77
2024-02-27T23:34:27.977Z,77.97
2024-02-27T23:36:54.814Z,78.92
2024-02-27T23:39:21.547Z,79.02
2024-02-27T23:41:48.277Z,78.67
2024-02-27T23:44:15.138Z,78.46
2024-02-27T23:46:46.371Z,79.00
2024-02-27T23:49:13.007Z,78.36
2024-02-27T23:51:41.459Z,76.99
2024-02-27T23:54:08.280Z,75.26
2024-02-27T23:56:34.828Z,75.95
2024-02-27T23:59:04.643Z,74.16
